createdAt,value
2018-09-03T00:00:41.113Z,6.53
2018-09-03T00:03:09.245Z,6.20
2018-09-03T00:05:37.248Z,5.63
2018-09-03T00:08:05.385Z,5.57
2018-09-03T00:10:33.446Z,5.83
2018-09-03T00:13:01.494Z,6.03
2018-09-03T00:15:29.590Z,6.13
2018-09-03T00:17:57.715Z,6.20
2018-09-03T00:20:25.755Z,6.13
2018-09-03T00:22:53.764Z,6.30
2018-09-03T00:25:21.893Z,5.57
2018-09-03T00:27:50.098Z,6.20
2018-09-03T00:30:18.212Z,6.10
2018-09-03T00:32:51.985Z,6.47
2018-09-03T00:35:25.624Z,6.37
2018-09-03T00:37:59.182Z,6.30
2018-09-03T00:40:33.139Z,6.73
2018-09-03T00:44:06.899Z,6.10
2018-09-03T00:46:40.553Z,6.27
2018-09-03T00:49:08.692Z,6.93
2018-09-03T00:51:36.811Z,6.47
2018-09-03T00:54:05.003Z,6.00
2018-09-03T00:56:33.314Z,5.87
2018-09-03T00:59:01.505Z,6.47
2018-09-03T01:01:29.643Z,5.93
2018-09-03T01:03:57.718Z,6.50
2018-09-03T01:06:25.728Z,6.20
2018-09-03T01:08:53.827Z,6.33
2018-09-03T01:11:24.635Z,5.93
2018-09-03T01:13:53.422Z,6.53
2018-09-03T01:16:21.579Z,5.90
2018-09-03T01:18:54.255Z,5.60
2018-09-03T01:21:23.049Z,5.80
2018-09-03T01:23:51.079Z,6.40
2018-09-03T01:26:19.065Z,6.43
2018-09-03T01:28:47.108Z,6.47
2018-09-03T01:31:17.949Z,6.33
2018-09-03T01:33:47.016Z,6.40
2018-09-03T01:36:15.299Z,5.50
2018-09-03T01:38:43.341Z,6.53
2018-09-03T01:41:11.418Z,6.03
2018-09-03T01:43:39.575Z,6.07
2018-09-03T01:46:07.650Z,6.13
2018-09-03T01:48:35.656Z,6.57
2018-09-03T01:51:04.235Z,6.00
2018-09-03T01:53:32.530Z,6.03
2018-09-03T01:56:00.558Z,6.30
2018-09-03T01:58:28.745Z,6.37
2018-09-03T02:00:56.760Z,6.13
2018-09-03T02:03:24.912Z,6.07
2018-09-03T02:05:53.076Z,6.03
2018-09-03T02:08:21.267Z,5.63
2018-09-03T02:10:49.408Z,6.73
2018-09-03T02:13:17.524Z,6.10
2018-09-03T02:15:45.553Z,6.57
2018-09-03T02:18:13.628Z,5.43
2018-09-03T02:20:41.674Z,6.53
2018-09-03T02:23:09.687Z,5.57
2018-09-03T02:25:37.738Z,6.40
2018-09-03T02:28:05.871Z,6.33
2018-09-03T02:30:33.960Z,6.43
2018-09-03T02:33:02.064Z,6.53
2018-09-03T02:35:30.116Z,6.53
2018-09-03T02:37:58.131Z,6.57
2018-09-03T02:40:26.117Z,6.97
2018-09-03T02:42:54.240Z,6.47
2018-09-03T02:45:22.394Z,6.40
2018-09-03T02:47:50.444Z,6.10
2018-09-03T02:50:18.529Z,7.10
2018-09-03T02:52:46.808Z,6.07
2018-09-03T02:55:14.894Z,6.43
2018-09-03T02:57:42.987Z,6.13
2018-09-03T03:00:11.099Z,6.23
2018-09-03T03:02:39.220Z,6.47
2018-09-03T03:05:07.298Z,5.77
2018-09-03T03:07:35.414Z,7.33
2018-09-03T03:10:03.450Z,6.90
2018-09-03T03:12:31.558Z,6.17
2018-09-03T03:14:59.737Z,6.80
2018-09-03T03:17:28.093Z,6.73
2018-09-03T03:19:56.123Z,6.20
2018-09-03T03:22:24.206Z,7.53
2018-09-03T03:24:52.183Z,7.03
2018-09-03T03:27:20.235Z,6.67
2018-09-03T03:29:48.285Z,5.60
2018-09-03T03:32:16.294Z,6.40
2018-09-03T03:34:44.390Z,5.97
2018-09-03T03:37:12.505Z,6.37
2018-09-03T03:39:40.586Z,6.17
2018-09-03T03:42:08.819Z,6.87
2018-09-03T03:44:37.207Z,6.40
2018-09-03T03:47:05.670Z,7.00
2018-09-03T03:49:33.692Z,6.33
2018-09-03T03:52:01.893Z,7.07
2018-09-03T03:54:30.088Z,7.70
2018-09-03T03:56:58.316Z,7.13
2018-09-03T03:59:26.361Z,5.90
2018-09-03T04:01:54.507Z,7.20
2018-09-03T04:04:22.600Z,7.60
2018-09-03T04:06:50.693Z,7.07
2018-09-03T04:09:18.793Z,5.87
2018-09-03T04:11:46.836Z,7.03
2018-09-03T04:14:14.841Z,6.57
2018-09-03T04:16:42.908Z,7.13
2018-09-03T04:19:11.004Z,6.47
2018-09-03T04:21:39.049Z,6.10
2018-09-03T04:24:07.023Z,5.97
2018-09-03T04:26:35.048Z,6.20
2018-09-03T04:29:03.107Z,7.43
2018-09-03T04:31:31.260Z,6.10
2018-09-03T04:33:59.327Z,6.77
2018-09-03T04:36:27.560Z,5.33
2018-09-03T04:38:55.648Z,7.70
2018-09-03T04:41:23.726Z,5.97
2018-09-03T04:43:51.767Z,6.83
2018-09-03T04:46:19.920Z,5.70
2018-09-03T04:48:48.003Z,5.87
2018-09-03T04:51:16.123Z,6.07
2018-09-03T04:53:44.326Z,6.20
2018-09-03T04:56:12.507Z,5.87
2018-09-03T04:58:40.595Z,7.07
2018-09-03T05:01:08.811Z,6.57
2018-09-03T05:03:36.956Z,6.30
2018-09-03T05:06:05.223Z,5.77
2018-09-03T05:08:33.499Z,5.93
2018-09-03T05:11:01.676Z,6.47
2018-09-03T05:13:29.748Z,7.07
2018-09-03T05:15:57.825Z,6.00
2018-09-03T05:18:26.031Z,9.00
2018-09-03T05:20:54.232Z,10.53
2018-09-03T05:23:22.619Z,7.87
2018-09-03T05:25:50.750Z,6.47
2018-09-03T05:28:19.234Z,6.83
2018-09-03T05:30:47.426Z,7.00
2018-09-03T05:33:15.860Z,6.93
2018-09-03T05:35:43.949Z,6.73
2018-09-03T05:38:12.118Z,6.90
2018-09-03T05:40:40.496Z,6.70
2018-09-03T05:43:08.691Z,7.63
2018-09-03T05:45:36.899Z,7.53
2018-09-03T05:48:05.608Z,7.23
2018-09-03T05:50:33.798Z,8.07
2018-09-03T05:53:01.865Z,7.80
2018-09-03T05:55:30.039Z,8.13
2018-09-03T05:57:58.127Z,7.33
2018-09-03T06:00:26.372Z,7.53
2018-09-03T06:02:54.530Z,7.00
2018-09-03T06:05:22.693Z,8.50
2018-09-03T06:07:50.913Z,8.13
2018-09-03T06:10:19.211Z,7.77
2018-09-03T06:12:47.413Z,7.50
2018-09-03T06:15:15.501Z,8.47
2018-09-03T06:17:43.549Z,6.80
2018-09-03T06:20:12.066Z,6.93
2018-09-03T06:22:40.324Z,8.43
2018-09-03T06:25:09.026Z,8.17
2018-09-03T06:27:37.428Z,7.63
2018-09-03T06:30:05.727Z,8.57
2018-09-03T06:32:34.082Z,8.40
2018-09-03T06:35:02.339Z,7.63
2018-09-03T06:37:30.558Z,8.60
2018-09-03T06:39:58.910Z,7.90
2018-09-03T06:42:27.042Z,7.57
2018-09-03T06:44:55.359Z,7.07
2018-09-03T06:47:23.676Z,8.57
2018-09-03T06:49:52.427Z,8.97
2018-09-03T06:52:20.609Z,7.90
2018-09-03T06:54:48.841Z,7.90
2018-09-03T06:57:17.004Z,7.43
2018-09-03T06:59:45.160Z,7.80
2018-09-03T07:02:13.277Z,7.33
2018-09-03T07:04:41.666Z,7.30
2018-09-03T07:07:09.758Z,7.97
2018-09-03T07:09:37.929Z,7.50
2018-09-03T07:12:05.884Z,7.20
2018-09-03T07:14:34.107Z,7.17
2018-09-03T07:17:02.308Z,7.17
2018-09-03T07:19:30.498Z,7.47
2018-09-03T07:21:58.959Z,6.93
2018-09-03T07:24:27.112Z,7.20
2018-09-03T07:26:55.202Z,7.87
2018-09-03T07:29:23.465Z,7.63
2018-09-03T07:31:51.678Z,8.33
2018-09-03T07:34:20.459Z,7.80
2018-09-03T07:36:48.678Z,7.90
2018-09-03T07:39:17.167Z,7.27
2018-09-03T07:41:45.482Z,7.23
2018-09-03T07:44:13.708Z,11.10
2018-09-03T07:46:41.843Z,9.70
2018-09-03T07:49:09.944Z,8.03
2018-09-03T07:51:38.033Z,15.67
2018-09-03T07:54:06.169Z,16.80
2018-09-03T07:56:34.332Z,16.77
2018-09-03T07:59:02.402Z,15.40
2018-09-03T08:01:30.519Z,14.13
2018-09-03T08:03:58.697Z,11.30
2018-09-03T08:06:26.958Z,10.23
2018-09-03T08:08:55.843Z,12.73
2018-09-03T08:11:24.898Z,8.18
2018-09-03T08:13:53.367Z,8.85
2018-09-03T08:16:22.029Z,7.67
2018-09-03T08:18:50.481Z,7.05
2018-09-03T08:21:18.843Z,6.95
2018-09-03T08:23:47.505Z,7.00
2018-09-03T08:26:15.847Z,6.78
2018-09-03T08:28:45.000Z,6.77
2018-09-03T08:31:13.490Z,7.77
2018-09-03T08:33:41.649Z,7.47
2018-09-03T08:36:10.221Z,7.97
2018-09-03T08:38:38.516Z,7.53
2018-09-03T08:41:07.714Z,8.25
2018-09-03T08:43:35.985Z,7.72
2018-09-03T08:46:04.118Z,7.87
2018-09-03T08:48:32.273Z,6.08
2018-09-03T08:51:00.669Z,6.92
2018-09-03T08:53:29.353Z,6.70
2018-09-03T08:55:57.656Z,6.22
2018-09-03T08:58:26.325Z,5.83
2018-09-03T09:00:54.836Z,6.00
2018-09-03T09:03:28.740Z,6.62
2018-09-03T09:05:57.130Z,5.40
2018-09-03T09:08:26.462Z,6.08
2018-09-03T09:10:56.177Z,6.33
2018-09-03T09:13:26.069Z,6.15
2018-09-03T09:15:54.288Z,5.87
2018-09-03T09:18:23.664Z,6.80
2018-09-03T09:20:59.650Z,6.25
2018-09-03T09:23:32.914Z,5.95
2018-09-03T09:26:09.907Z,6.53
2018-09-03T09:28:45.120Z,6.42
2018-09-03T09:31:19.830Z,5.72
2018-09-03T09:33:48.977Z,6.20
2018-09-03T09:36:17.370Z,6.10
2018-09-03T09:38:45.599Z,6.12
2018-09-03T09:41:13.771Z,6.53
2018-09-03T09:43:42.429Z,6.00
2018-09-03T09:46:13.442Z,6.20
2018-09-03T09:48:42.966Z,5.80
2018-09-03T09:51:11.910Z,6.10
2018-09-03T09:53:40.101Z,6.30
2018-09-03T09:56:08.251Z,6.53
2018-09-03T09:58:36.491Z,6.33
2018-09-03T10:01:10.290Z,5.75
2018-09-03T10:03:38.500Z,6.00
2018-09-03T10:06:06.762Z,6.80
2018-09-03T10:08:35.043Z,7.30
2018-09-03T10:11:03.325Z,6.83
2018-09-03T10:13:31.593Z,7.10
2018-09-03T10:16:00.201Z,6.45
2018-09-03T10:18:28.336Z,6.70
2018-09-03T10:20:56.568Z,6.97
2018-09-03T10:23:24.939Z,6.97
2018-09-03T10:25:53.041Z,6.20
2018-09-03T10:28:21.403Z,7.28
2018-09-03T10:30:49.714Z,6.42
2018-09-03T10:33:18.135Z,7.47
2018-09-03T10:35:46.244Z,6.33
2018-09-03T10:38:14.641Z,7.33
2018-09-03T10:40:42.855Z,7.50
2018-09-03T10:43:11.022Z,6.87
2018-09-03T10:45:44.296Z,8.08
2018-09-03T10:48:13.901Z,6.62
2018-09-03T10:50:45.438Z,7.35
2018-09-03T10:53:13.705Z,6.95
2018-09-03T10:55:42.189Z,7.35
2018-09-03T10:58:11.194Z,6.87
2018-09-03T11:00:39.566Z,6.25
2018-09-03T11:03:08.187Z,6.72
2018-09-03T11:05:36.651Z,6.45
2018-09-03T11:08:05.025Z,7.17
2018-09-03T11:10:33.227Z,6.90
2018-09-03T11:13:01.674Z,6.65
2018-09-03T11:15:29.812Z,6.80
2018-09-03T11:17:57.952Z,7.30
2018-09-03T11:20:27.453Z,6.50
2018-09-03T11:22:56.139Z,7.72
2018-09-03T11:25:25.813Z,6.97
2018-09-03T11:27:54.913Z,7.00
2018-09-03T11:30:23.783Z,6.30
2018-09-03T11:32:59.079Z,7.58
2018-09-03T11:35:27.355Z,6.97
2018-09-03T11:37:55.630Z,7.05
2018-09-03T11:40:24.722Z,6.55
2018-09-03T11:42:53.282Z,6.20
2018-09-03T11:45:22.693Z,7.10
2018-09-03T11:47:50.905Z,7.85
2018-09-03T11:50:19.918Z,7.00
2018-09-03T11:52:48.442Z,7.12
2018-09-03T11:55:16.889Z,6.30
2018-09-03T11:57:45.403Z,7.33
2018-09-03T12:00:20.519Z,7.00
2018-09-03T12:02:49.047Z,7.97
2018-09-03T12:05:17.423Z,7.70
2018-09-03T12:07:45.652Z,7.37
2018-09-03T12:10:13.807Z,8.38
2018-09-03T12:12:42.597Z,14.95
2018-09-03T12:15:15.543Z,18.05
2018-09-03T12:17:43.742Z,8.83
2018-09-03T12:20:11.902Z,9.13
2018-09-03T12:22:40.209Z,6.85
2018-09-03T12:25:08.549Z,7.40
2018-09-03T12:27:36.656Z,7.90
2018-09-03T12:30:07.984Z,6.20
2018-09-03T12:32:37.393Z,7.60
2018-09-03T12:35:07.378Z,7.75
2018-09-03T12:37:36.703Z,7.40
2018-09-03T12:40:08.924Z,7.03
2018-09-03T12:42:38.785Z,7.58
2018-09-03T12:45:10.727Z,6.92
2018-09-03T12:47:39.177Z,9.78
2018-09-03T12:50:08.118Z,8.63
2018-09-03T12:52:40.158Z,10.18
2018-09-03T12:55:10.223Z,8.83
2018-09-03T12:57:41.325Z,10.18
2018-09-03T13:00:17.613Z,6.97
2018-09-03T13:02:56.169Z,7.17
2018-09-03T13:05:25.775Z,7.85
2018-09-03T13:07:54.858Z,7.87
2018-09-03T13:10:23.103Z,8.78
2018-09-03T13:12:51.182Z,7.55
2018-09-03T13:15:19.233Z,8.98
2018-09-03T13:17:47.353Z,6.65
2018-09-03T13:20:15.518Z,7.28
2018-09-03T13:22:43.735Z,7.53
2018-09-03T13:25:11.821Z,6.58
2018-09-03T13:27:39.901Z,6.35
2018-09-03T13:30:09.215Z,6.95
2018-09-03T13:32:37.407Z,6.53
2018-09-03T13:35:05.714Z,5.90
2018-09-03T13:37:33.863Z,5.47
2018-09-03T13:40:02.090Z,5.97
2018-09-03T13:42:30.667Z,5.80
2018-09-03T13:44:58.841Z,5.45
2018-09-03T13:47:27.213Z,5.55
2018-09-03T13:49:55.417Z,4.53
2018-09-03T13:52:23.458Z,4.90
2018-09-03T13:54:51.719Z,4.45
2018-09-03T13:57:19.853Z,5.35
2018-09-03T13:59:48.304Z,5.28
2018-09-03T14:02:16.423Z,5.42
2018-09-03T14:04:44.710Z,4.92
2018-09-03T14:07:12.863Z,5.00
2018-09-03T14:09:42.514Z,5.05
2018-09-03T14:12:13.771Z,6.55
2018-09-03T14:14:42.071Z,6.40
2018-09-03T14:17:10.319Z,6.30
2018-09-03T14:19:38.557Z,6.75
2018-09-03T14:22:06.927Z,6.42
2018-09-03T14:24:35.303Z,5.97
2018-09-03T14:27:28.375Z,6.58
2018-09-03T14:30:02.620Z,6.12
2018-09-03T14:32:30.985Z,7.45
2018-09-03T14:34:59.269Z,6.97
2018-09-03T14:37:27.637Z,5.72
2018-09-03T14:39:55.761Z,6.05
2018-09-03T14:42:24.009Z,7.45
2018-09-03T14:44:52.215Z,7.00
2018-09-03T14:47:20.412Z,6.17
2018-09-03T14:49:48.608Z,6.75
2018-09-03T14:52:16.743Z,6.75
2018-09-03T14:54:45.711Z,6.28
2018-09-03T14:57:13.863Z,6.17
2018-09-03T14:59:46.555Z,6.75
2018-09-03T15:02:16.459Z,6.15
2018-09-03T15:04:44.783Z,6.53
2018-09-03T15:07:12.859Z,6.10
2018-09-03T15:09:40.999Z,5.92
2018-09-03T15:12:24.928Z,6.33
2018-09-03T15:14:56.508Z,6.37
2018-09-03T15:17:24.590Z,6.87
2018-09-03T15:19:52.706Z,6.80
2018-09-03T15:22:20.804Z,5.80
2018-09-03T15:24:48.905Z,5.87
2018-09-03T15:27:17.092Z,6.67
2018-09-03T15:29:45.371Z,6.73
2018-09-03T15:32:21.557Z,6.60
2018-09-03T15:34:52.156Z,6.30
2018-09-03T15:37:21.897Z,6.87
2018-09-03T15:39:52.113Z,6.17
2018-09-03T15:42:23.215Z,6.20
2018-09-03T15:44:54.268Z,6.07
2018-09-03T15:47:26.432Z,5.63
2018-09-03T15:49:56.744Z,5.93
2018-09-03T15:52:27.329Z,6.17
2018-09-03T15:54:57.326Z,6.43
2018-09-03T15:57:29.813Z,6.10
2018-09-03T16:00:01.009Z,6.27
2018-09-03T16:02:31.619Z,6.83
2018-09-03T16:05:03.118Z,6.70
2018-09-03T16:07:31.592Z,6.60
2018-09-03T16:09:59.790Z,6.97
2018-09-03T16:12:28.208Z,7.10
2018-09-03T16:14:56.567Z,5.80
2018-09-03T16:17:24.735Z,7.60
2018-09-03T16:19:53.434Z,6.40
2018-09-03T16:22:21.968Z,7.87
2018-09-03T16:25:06.492Z,6.37
2018-09-03T16:27:35.595Z,6.73
2018-09-03T16:30:04.611Z,7.17
2018-09-03T16:32:35.176Z,6.57
2018-09-03T16:35:03.697Z,5.53
2018-09-03T16:37:32.261Z,6.67
2018-09-03T16:40:00.866Z,6.70
2018-09-03T16:42:36.186Z,7.57
2018-09-03T16:45:06.391Z,6.70
2018-09-03T16:47:38.375Z,6.50
2018-09-03T16:50:08.312Z,6.40
2018-09-03T16:52:36.560Z,6.00
2018-09-03T16:55:05.293Z,6.00
2018-09-03T16:57:33.737Z,6.43
2018-09-03T17:00:06.858Z,5.90
2018-09-03T17:02:41.603Z,5.27
2018-09-03T17:05:13.792Z,6.33
2018-09-03T17:07:42.146Z,6.73
2018-09-03T17:10:10.859Z,7.07
2018-09-03T17:12:39.877Z,7.37
2018-09-03T17:15:08.050Z,6.67
2018-09-03T17:17:36.251Z,6.67
2018-09-03T17:20:05.005Z,6.13
2018-09-03T17:22:33.292Z,6.47
2018-09-03T17:25:01.585Z,5.97
2018-09-03T17:27:29.839Z,6.40
2018-09-03T17:29:58.166Z,6.40
2018-09-03T17:32:26.408Z,7.17
2018-09-03T17:34:54.640Z,7.33
2018-09-03T17:37:23.147Z,7.20
2018-09-03T17:39:51.187Z,7.17
2018-09-03T17:42:19.629Z,9.50
2018-09-03T17:44:47.956Z,7.07
2018-09-03T17:47:16.298Z,6.83
2018-09-03T17:49:44.554Z,6.10
2018-09-03T17:52:12.819Z,6.60
2018-09-03T17:54:41.272Z,6.33
2018-09-03T17:57:11.308Z,6.40
2018-09-03T17:59:39.725Z,6.30
2018-09-03T18:02:08.360Z,6.17
2018-09-03T18:04:36.817Z,6.90
2018-09-03T18:07:05.149Z,6.40
2018-09-03T18:09:33.324Z,7.07
2018-09-03T18:12:04.081Z,6.13
2018-09-03T18:14:32.529Z,7.23
2018-09-03T18:17:00.870Z,6.17
2018-09-03T18:19:29.231Z,6.77
2018-09-03T18:21:57.571Z,6.50
2018-09-03T18:24:25.776Z,7.00
2018-09-03T18:26:54.065Z,6.57
2018-09-03T18:29:24.214Z,6.73
2018-09-03T18:31:52.484Z,7.37
2018-09-03T18:34:20.903Z,7.80
2018-09-03T18:36:50.918Z,7.00
2018-09-03T18:39:19.505Z,7.50
2018-09-03T18:41:49.061Z,7.53
2018-09-03T18:44:19.843Z,7.37
2018-09-03T18:46:49.978Z,7.53
2018-09-03T18:49:18.533Z,6.97
2018-09-03T18:51:46.816Z,6.57
2018-09-03T18:54:15.186Z,7.43
2018-09-03T18:56:43.649Z,7.10
2018-09-03T18:59:11.849Z,7.67
2018-09-03T19:01:40.386Z,6.50
2018-09-03T19:04:08.851Z,7.07
2018-09-03T19:06:37.305Z,7.57
2018-09-03T19:09:07.182Z,6.90
2018-09-03T19:11:35.424Z,6.73
2018-09-03T19:14:03.760Z,7.03
2018-09-03T19:16:33.021Z,6.57
2018-09-03T19:19:01.522Z,6.77
2018-09-03T19:21:29.786Z,7.20
2018-09-03T19:23:58.083Z,6.57
2018-09-03T19:26:26.284Z,7.07
2018-09-03T19:28:54.551Z,7.47
2018-09-03T19:31:22.917Z,6.40
2018-09-03T19:33:51.403Z,6.43
2018-09-03T19:36:19.563Z,6.53
2018-09-03T19:38:47.775Z,6.07
2018-09-03T19:41:16.211Z,6.80
2018-09-03T19:43:44.447Z,6.90
2018-09-03T19:46:12.809Z,6.60
2018-09-03T19:48:41.067Z,7.07
2018-09-03T19:51:09.200Z,6.77
2018-09-03T19:53:37.422Z,7.57
2018-09-03T19:56:06.026Z,7.50
2018-09-03T19:58:34.392Z,7.37
2018-09-03T20:01:02.567Z,6.87
2018-09-03T20:03:30.744Z,7.67
2018-09-03T20:05:59.266Z,7.57
2018-09-03T20:08:27.428Z,7.83
2018-09-03T20:10:55.640Z,8.07
2018-09-03T20:13:23.976Z,7.90
2018-09-03T20:15:52.556Z,7.47
2018-09-03T20:18:20.669Z,7.97
2018-09-03T20:20:48.817Z,8.40
2018-09-03T20:23:17.015Z,7.47
2018-09-03T20:25:45.113Z,7.83
2018-09-03T20:28:13.244Z,7.53
2018-09-03T20:30:41.516Z,8.03
2018-09-03T20:33:09.817Z,7.60
2018-09-03T20:35:37.967Z,6.90
2018-09-03T20:38:06.129Z,7.03
2018-09-03T20:40:34.227Z,7.40
2018-09-03T20:43:02.552Z,7.87
2018-09-03T20:45:30.869Z,8.07
2018-09-03T20:47:59.124Z,8.00
2018-09-03T20:50:27.280Z,7.50
2018-09-03T20:52:55.480Z,7.20
2018-09-03T20:55:24.009Z,7.77
2018-09-03T20:57:52.214Z,7.20
2018-09-03T21:00:20.299Z,6.97
2018-09-03T21:02:48.488Z,7.50
2018-09-03T21:05:16.571Z,7.43
2018-09-03T21:07:44.714Z,7.37
2018-09-03T21:10:12.857Z,7.67
2018-09-03T21:12:41.001Z,6.90
2018-09-03T21:15:09.073Z,8.13
2018-09-03T21:17:37.404Z,7.70
2018-09-03T21:20:05.885Z,7.90
2018-09-03T21:22:34.041Z,7.70
2018-09-03T21:25:02.305Z,7.30
2018-09-03T21:27:30.403Z,7.23
2018-09-03T21:29:58.416Z,8.10
2018-09-03T21:32:26.537Z,7.47
2018-09-03T21:34:54.709Z,6.90
2018-09-03T21:37:22.840Z,7.53
2018-09-03T21:39:50.978Z,7.70
2018-09-03T21:42:19.112Z,7.60
2018-09-03T21:44:47.239Z,8.00
2018-09-03T21:47:15.513Z,7.40
2018-09-03T21:49:43.603Z,7.83
2018-09-03T21:52:11.670Z,7.70
2018-09-03T21:54:39.762Z,7.17
2018-09-03T21:57:08.027Z,7.93
2018-09-03T21:59:36.143Z,6.93
2018-09-03T22:02:08.096Z,7.57
2018-09-03T22:04:36.905Z,8.00
2018-09-03T22:07:04.970Z,7.97
2018-09-03T22:09:33.076Z,7.00
2018-09-03T22:12:01.151Z,7.60
2018-09-03T22:14:29.284Z,7.73
2018-09-03T22:16:57.405Z,6.70
2018-09-03T22:19:25.425Z,7.50
2018-09-03T22:21:53.603Z,7.50
2018-09-03T22:24:21.756Z,7.20
2018-09-03T22:26:50.412Z,7.60
2018-09-03T22:29:18.501Z,8.07
2018-09-03T22:31:46.594Z,7.57
2018-09-03T22:34:14.710Z,7.43
2018-09-03T22:36:43.737Z,7.53
2018-09-03T22:39:12.221Z,6.63
2018-09-03T22:41:40.285Z,7.00
2018-09-03T22:44:08.397Z,7.40
2018-09-03T22:46:36.531Z,7.33
2018-09-03T22:49:04.854Z,7.37
2018-09-03T22:51:32.986Z,7.23
2018-09-03T22:54:01.076Z,7.30
2018-09-03T22:56:29.143Z,7.13
2018-09-03T22:58:57.400Z,8.00
2018-09-03T23:01:25.547Z,7.03
2018-09-03T23:03:53.745Z,7.17
2018-09-03T23:06:21.830Z,7.47
2018-09-03T23:08:49.877Z,6.73
2018-09-03T23:11:18.018Z,6.87
2018-09-03T23:13:46.147Z,6.70
2018-09-03T23:16:14.219Z,7.53
2018-09-03T23:18:42.316Z,6.83
2018-09-03T23:21:10.481Z,8.00
2018-09-03T23:23:38.581Z,7.90
2018-09-03T23:26:06.655Z,6.87
2018-09-03T23:28:34.739Z,6.53
2018-09-03T23:31:02.776Z,7.47
2018-09-03T23:33:30.925Z,6.87
2018-09-03T23:35:58.908Z,7.63
2018-09-03T23:38:27.100Z,7.57
2018-09-03T23:40:55.302Z,7.37
2018-09-03T23:43:23.339Z,6.70
2018-09-03T23:45:51.379Z,6.80
2018-09-03T23:48:19.445Z,6.77
2018-09-03T23:50:47.633Z,6.70
2018-09-03T23:53:15.886Z,6.87
2018-09-03T23:55:43.943Z,7.00
2018-09-03T23:58:11.976Z,7.67
